Terminal Aerodrome Forecast
Issued by NWS Wakefield, VA

Home | Current Version | Previous Version | Text Only | Print | Product List | Glossary On
Versions: 1 2 3 4 5 6 7 8 9 10 11 12 13 14 15 16 17 18 19 20 21 22
000
FTUS41 KAKQ 261825 AAA
TAFRIC
TAF AMD
KRIC 261825Z 2618/2718 02007KT P6SM SCT040 BKN070
     FM262300 00000KT P6SM SCT250
     FM270600 33004KT P6SM BKN100
     FM271400 34008KT P6SM SCT250=

USA.gov is the U.S. government's official web portal to all federal, state and local government web resources and services.